createdAt,value
2022-12-08T00:01:06.444Z,11.33
2022-12-08T00:02:08.184Z,11.34
2022-12-08T00:03:10.072Z,11.29
2022-12-08T00:04:11.702Z,11.20
2022-12-08T00:05:31.913Z,11.13
2022-12-08T00:06:58.049Z,11.10
2022-12-08T00:08:17.894Z,11.05
2022-12-08T00:09:39.917Z,11.04
2022-12-08T00:10:49.708Z,11.06
2022-12-08T00:11:57.395Z,11.07
2022-12-08T00:12:58.990Z,11.05
2022-12-08T00:14:00.924Z,11.03
2022-12-08T00:15:03.252Z,11.02
2022-12-08T00:16:05.119Z,11.02
2022-12-08T00:17:08.158Z,11.04
2022-12-08T00:18:09.785Z,11.01
2022-12-08T00:19:11.381Z,10.97
2022-12-08T00:20:12.879Z,10.95
2022-12-08T00:21:14.496Z,10.96
2022-12-08T00:22:16.021Z,10.97
2022-12-08T00:23:18.257Z,11.00
2022-12-08T00:24:21.118Z,10.98
2022-12-08T00:25:22.682Z,10.86
2022-12-08T00:26:24.369Z,10.68
2022-12-08T00:27:25.899Z,10.55
2022-12-08T00:28:27.446Z,10.45
2022-12-08T00:29:29.128Z,10.34
2022-12-08T00:30:30.688Z,10.23
2022-12-08T00:31:32.357Z,10.20
2022-12-08T00:32:33.902Z,10.19
2022-12-08T00:33:36.926Z,10.15
2022-12-08T00:34:38.476Z,10.09
2022-12-08T00:35:43.047Z,10.02
2022-12-08T00:36:45.319Z,10.07
2022-12-08T00:37:46.858Z,10.08
2022-12-08T00:38:48.709Z,10.08
2022-12-08T00:39:50.369Z,10.06
2022-12-08T00:40:51.941Z,10.01
2022-12-08T00:42:12.110Z,10.03
2022-12-08T00:43:14.719Z,9.94
2022-12-08T00:44:21.432Z,9.96
2022-12-08T00:45:23.005Z,9.95
2022-12-08T00:46:24.581Z,9.97
2022-12-08T00:47:26.154Z,10.04
2022-12-08T00:48:27.742Z,10.02
2022-12-08T00:49:29.263Z,10.09
2022-12-08T00:50:30.833Z,10.15
2022-12-08T00:51:33.053Z,10.12
2022-12-08T00:52:34.902Z,10.13
2022-12-08T00:53:36.423Z,10.09
2022-12-08T00:54:38.055Z,10.05
2022-12-08T00:55:39.565Z,10.17
2022-12-08T00:56:41.145Z,10.22
2022-12-08T00:57:42.726Z,10.21
2022-12-08T00:58:44.301Z,10.20
2022-12-08T00:59:45.892Z,10.26
2022-12-08T01:00:47.552Z,10.34
2022-12-08T01:01:49.456Z,10.41
2022-12-08T01:02:51.120Z,10.34
2022-12-08T01:03:53.018Z,10.15
2022-12-08T01:04:54.581Z,9.99
2022-12-08T01:05:56.088Z,9.97
2022-12-08T01:06:57.603Z,9.90
2022-12-08T01:07:59.248Z,9.77
2022-12-08T01:09:02.231Z,9.75
2022-12-08T01:10:04.343Z,9.82
2022-12-08T01:11:08.187Z,9.94
2022-12-08T01:12:09.920Z,9.94
2022-12-08T01:13:11.485Z,9.95
2022-12-08T01:14:13.818Z,9.94
2022-12-08T01:15:15.590Z,9.95
2022-12-08T01:16:26.538Z,10.05
2022-12-08T01:17:28.141Z,10.09
2022-12-08T01:18:30.307Z,10.15
2022-12-08T01:19:31.928Z,10.17
2022-12-08T01:20:33.439Z,10.19
2022-12-08T01:21:35.016Z,10.24
2022-12-08T01:22:36.624Z,10.30
2022-12-08T01:23:38.213Z,10.31
2022-12-08T01:24:39.726Z,10.23
2022-12-08T01:25:41.402Z,10.19
2022-12-08T01:26:43.471Z,10.17
2022-12-08T01:27:45.039Z,10.18
2022-12-08T01:28:47.551Z,10.29
2022-12-08T01:29:49.077Z,10.35
2022-12-08T01:30:50.648Z,10.41
2022-12-08T01:31:52.222Z,10.43
2022-12-08T01:32:53.727Z,10.28
2022-12-08T01:33:55.317Z,10.11
2022-12-08T01:34:56.835Z,10.06
2022-12-08T01:36:05.342Z,10.00
2022-12-08T01:37:07.658Z,9.90
2022-12-08T01:38:09.219Z,9.76
2022-12-08T01:39:15.713Z,9.75
2022-12-08T01:40:17.675Z,9.82
2022-12-08T01:41:22.610Z,9.93
2022-12-08T01:42:25.448Z,10.02
2022-12-08T01:44:05.930Z,10.10
2022-12-08T01:45:15.275Z,10.01
2022-12-08T01:46:16.839Z,9.80
2022-12-08T01:47:18.606Z,9.70
2022-12-08T01:48:27.234Z,9.64
2022-12-08T01:49:33.005Z,9.63
2022-12-08T01:50:35.563Z,9.67
2022-12-08T01:51:44.182Z,9.75
2022-12-08T01:52:56.286Z,9.74
2022-12-08T01:53:58.043Z,9.56
2022-12-08T01:55:05.686Z,9.47
2022-12-08T01:56:13.335Z,9.37
2022-12-08T01:57:22.876Z,9.26
2022-12-08T01:58:33.226Z,9.08
2022-12-08T01:59:39.279Z,8.96
2022-12-08T02:00:40.951Z,8.93
2022-12-08T02:01:42.640Z,8.89
2022-12-08T02:02:49.970Z,8.89
2022-12-08T02:04:02.899Z,8.95
2022-12-08T02:05:06.640Z,9.09
2022-12-08T02:06:08.644Z,9.14
2022-12-08T02:07:13.236Z,9.14
2022-12-08T02:08:15.247Z,9.16
2022-12-08T02:09:16.899Z,9.19
2022-12-08T02:10:21.091Z,9.22
2022-12-08T02:11:22.696Z,9.21
2022-12-08T02:12:24.501Z,9.17
2022-12-08T02:13:26.318Z,9.19
2022-12-08T02:14:28.102Z,9.16
2022-12-08T02:16:01.764Z,9.06
2022-12-08T02:17:34.351Z,8.97
2022-12-08T02:18:53.743Z,8.96
2022-12-08T02:20:37.944Z,8.92
2022-12-08T02:21:58.216Z,8.83
2022-12-08T02:23:02.751Z,8.87
2022-12-08T02:24:17.640Z,8.92
2022-12-08T02:25:44.210Z,8.94
2022-12-08T02:27:04.113Z,8.99
2022-12-08T02:28:24.094Z,9.09
2022-12-08T02:29:43.940Z,9.16
2022-12-08T02:31:24.153Z,9.18
2022-12-08T02:32:37.815Z,9.19
2022-12-08T02:33:58.205Z,9.21
2022-12-08T02:35:13.623Z,9.23
2022-12-08T02:36:24.165Z,9.21
2022-12-08T02:37:32.975Z,9.15
2022-12-08T02:38:48.916Z,9.07
2022-12-08T02:40:02.035Z,9.01
2022-12-08T02:41:06.726Z,8.99
2022-12-08T02:42:11.259Z,9.02
2022-12-08T02:43:22.225Z,8.97
2022-12-08T02:44:58.043Z,8.96
2022-12-08T02:46:04.755Z,9.02
2022-12-08T02:47:16.882Z,9.05
2022-12-08T02:48:18.470Z,9.09
2022-12-08T02:49:20.193Z,9.15
2022-12-08T02:50:21.711Z,9.17
2022-12-08T02:51:23.379Z,9.15
2022-12-08T02:52:24.947Z,9.11
2022-12-08T02:53:30.352Z,9.02
2022-12-08T02:54:32.544Z,9.02
2022-12-08T02:55:48.609Z,9.12
2022-12-08T02:57:08.105Z,9.26
2022-12-08T02:58:30.105Z,9.37
2022-12-08T03:00:08.893Z,9.50
2022-12-08T03:01:40.715Z,9.58
2022-12-08T03:03:04.095Z,9.54
2022-12-08T03:04:40.796Z,9.57
2022-12-08T03:06:06.655Z,9.48
2022-12-08T03:07:12.589Z,9.27
2022-12-08T03:08:41.078Z,9.19
2022-12-08T03:09:50.535Z,9.27
2022-12-08T03:11:08.786Z,9.31
2022-12-08T03:12:23.523Z,9.28
2022-12-08T03:13:42.249Z,9.12
2022-12-08T03:14:51.065Z,9.00
2022-12-08T03:15:55.474Z,8.91
2022-12-08T03:16:59.524Z,8.84
2022-12-08T03:18:01.070Z,8.81
2022-12-08T03:19:14.724Z,8.76
2022-12-08T03:20:20.844Z,8.72
2022-12-08T03:21:23.234Z,8.71
2022-12-08T03:22:27.642Z,8.64
2022-12-08T03:23:30.779Z,8.61
2022-12-08T03:24:36.766Z,8.61
2022-12-08T03:25:43.560Z,8.61
2022-12-08T03:27:14.011Z,8.66
2022-12-08T03:28:15.727Z,8.69
2022-12-08T03:29:18.173Z,8.72
2022-12-08T03:30:19.872Z,8.75
2022-12-08T03:31:25.423Z,8.75
2022-12-08T03:32:37.334Z,8.72
2022-12-08T03:33:43.889Z,8.68
2022-12-08T03:34:48.124Z,8.65
2022-12-08T03:35:50.728Z,8.64
2022-12-08T03:36:52.425Z,8.68
2022-12-08T03:38:09.437Z,8.78
2022-12-08T03:39:11.424Z,8.88
2022-12-08T03:40:17.133Z,8.94
2022-12-08T03:41:19.533Z,8.98
2022-12-08T03:42:21.126Z,8.99
2022-12-08T03:43:22.677Z,9.05
2022-12-08T03:44:24.275Z,9.12
2022-12-08T03:45:25.902Z,9.14
2022-12-08T03:47:30.321Z,9.29
2022-12-08T03:48:31.819Z,9.37
2022-12-08T03:49:33.453Z,9.38
2022-12-08T03:50:34.964Z,9.36
2022-12-08T03:51:36.616Z,9.37
2022-12-08T03:52:38.126Z,9.34
2022-12-08T03:53:39.918Z,9.32
2022-12-08T03:54:41.495Z,9.30
2022-12-08T03:55:43.215Z,9.35
2022-12-08T03:56:44.808Z,9.40
2022-12-08T03:57:46.407Z,9.45
2022-12-08T03:58:47.947Z,9.51
2022-12-08T03:59:49.568Z,9.57
2022-12-08T04:00:51.552Z,9.64
2022-12-08T04:01:53.157Z,9.73
2022-12-08T04:02:54.797Z,9.81
2022-12-08T04:03:56.633Z,9.87
2022-12-08T04:04:58.167Z,9.90
2022-12-08T04:05:59.689Z,9.95
2022-12-08T04:07:01.306Z,10.00
2022-12-08T04:08:02.964Z,10.05
2022-12-08T04:09:04.622Z,10.10
2022-12-08T04:10:06.964Z,10.17
2022-12-08T04:11:08.924Z,10.18
2022-12-08T04:12:10.537Z,10.23
2022-12-08T04:13:12.114Z,10.22
2022-12-08T04:14:13.664Z,10.15
2022-12-08T04:15:15.198Z,10.08
2022-12-08T04:16:24.132Z,10.14
2022-12-08T04:17:25.844Z,10.18
2022-12-08T04:18:27.392Z,10.20
2022-12-08T04:19:29.295Z,10.24
2022-12-08T04:20:30.822Z,10.28
2022-12-08T04:21:32.868Z,10.31
2022-12-08T04:22:34.456Z,10.35
2022-12-08T04:23:36.506Z,10.38
2022-12-08T04:24:38.059Z,10.42
2022-12-08T04:25:39.627Z,10.44
2022-12-08T04:26:41.237Z,10.47
2022-12-08T04:27:42.856Z,10.49
2022-12-08T04:28:44.521Z,10.51
2022-12-08T04:29:46.113Z,10.51
2022-12-08T04:30:48.874Z,10.52
2022-12-08T04:31:50.492Z,10.57
2022-12-08T04:32:52.055Z,10.59
2022-12-08T04:33:53.623Z,10.61
2022-12-08T04:34:55.613Z,10.64
2022-12-08T04:35:57.374Z,10.66
2022-12-08T04:36:58.930Z,10.69
2022-12-08T04:38:00.515Z,10.74
2022-12-08T04:39:02.069Z,10.77
2022-12-08T04:40:04.198Z,10.78
2022-12-08T04:41:06.198Z,10.77
2022-12-08T04:42:07.757Z,10.79
2022-12-08T04:43:09.341Z,10.80
2022-12-08T04:44:10.893Z,10.76
2022-12-08T04:45:12.433Z,10.80
2022-12-08T04:46:14.193Z,10.76
2022-12-08T04:47:15.896Z,10.66
2022-12-08T04:48:17.892Z,10.47
2022-12-08T04:49:19.527Z,10.49
2022-12-08T04:50:21.053Z,10.53
2022-12-08T04:51:22.621Z,10.49
2022-12-08T04:52:24.449Z,10.47
2022-12-08T04:53:27.239Z,10.43
2022-12-08T04:54:31.416Z,10.40
2022-12-08T04:55:32.965Z,10.36
2022-12-08T04:56:34.660Z,10.37
2022-12-08T04:57:36.197Z,10.28
2022-12-08T04:58:38.010Z,10.20
2022-12-08T04:59:39.567Z,10.14
2022-12-08T05:00:41.847Z,10.07
2022-12-08T05:01:43.529Z,9.99
2022-12-08T05:02:45.295Z,9.83
2022-12-08T05:03:46.882Z,9.71
2022-12-08T05:04:48.430Z,9.73
2022-12-08T05:05:50.005Z,9.72
2022-12-08T05:06:51.593Z,9.56
2022-12-08T05:07:53.184Z,9.54
2022-12-08T05:08:54.970Z,9.63
2022-12-08T05:09:56.555Z,9.69
2022-12-08T05:11:06.360Z,9.75
2022-12-08T05:12:07.996Z,9.79
2022-12-08T05:13:09.818Z,9.71
2022-12-08T05:14:13.151Z,9.67
2022-12-08T05:15:14.826Z,9.70
2022-12-08T05:16:16.835Z,9.70
2022-12-08T05:17:19.232Z,9.67
2022-12-08T05:18:20.846Z,9.65
2022-12-08T05:19:22.624Z,9.71
2022-12-08T05:20:24.127Z,9.79
2022-12-08T05:21:26.933Z,9.87
2022-12-08T05:22:28.571Z,9.90
2022-12-08T05:23:30.198Z,9.92
2022-12-08T05:24:31.757Z,9.93
2022-12-08T05:25:33.293Z,9.99
2022-12-08T05:26:34.872Z,10.07
2022-12-08T05:27:36.955Z,10.11
2022-12-08T05:28:41.966Z,10.17
2022-12-08T05:29:44.618Z,10.21
2022-12-08T05:30:46.514Z,10.22
2022-12-08T05:31:48.111Z,10.19
2022-12-08T05:32:49.751Z,10.22
2022-12-08T05:33:52.184Z,10.18
2022-12-08T05:34:53.852Z,10.14
2022-12-08T05:35:55.434Z,10.07
2022-12-08T05:36:57.020Z,9.91
2022-12-08T05:37:58.592Z,9.78
2022-12-08T05:39:00.157Z,9.67
2022-12-08T05:40:02.094Z,9.63
2022-12-08T05:41:04.100Z,9.55
2022-12-08T05:42:06.251Z,9.48
2022-12-08T05:43:07.845Z,9.42
2022-12-08T05:44:09.357Z,9.42
2022-12-08T05:45:11.182Z,9.39
2022-12-08T05:46:13.498Z,9.43
2022-12-08T05:47:15.095Z,9.52
2022-12-08T05:48:16.869Z,9.59
2022-12-08T05:49:18.532Z,9.57
2022-12-08T05:50:20.079Z,9.59
2022-12-08T05:51:24.200Z,9.54
2022-12-08T05:52:25.708Z,9.47
2022-12-08T05:53:27.266Z,9.49
2022-12-08T05:54:28.827Z,9.50
2022-12-08T05:55:30.453Z,9.44
2022-12-08T05:56:32.053Z,9.28
2022-12-08T05:57:33.591Z,9.19
2022-12-08T05:58:35.131Z,9.18
2022-12-08T05:59:37.603Z,9.18
2022-12-08T06:00:39.213Z,9.13
2022-12-08T06:01:40.843Z,9.11
2022-12-08T06:02:42.682Z,9.08
2022-12-08T06:03:44.378Z,9.08
2022-12-08T06:04:45.926Z,9.14
2022-12-08T06:05:47.843Z,9.16
2022-12-08T06:06:49.541Z,9.17
2022-12-08T06:07:51.182Z,9.17
2022-12-08T06:08:53.361Z,9.08
2022-12-08T06:09:54.942Z,9.10
2022-12-08T06:10:56.480Z,9.13
2022-12-08T06:11:58.027Z,9.20
2022-12-08T06:12:59.945Z,9.23
2022-12-08T06:14:02.124Z,9.29
2022-12-08T06:15:04.152Z,9.34
2022-12-08T06:16:06.967Z,9.39
2022-12-08T06:17:08.595Z,9.37
2022-12-08T06:18:10.925Z,9.36
2022-12-08T06:19:12.497Z,9.33
2022-12-08T06:20:14.129Z,9.33
2022-12-08T06:21:16.816Z,9.40
2022-12-08T06:22:18.372Z,9.46
2022-12-08T06:23:19.891Z,9.48
2022-12-08T06:24:21.412Z,9.51
2022-12-08T06:25:24.071Z,9.49
2022-12-08T06:26:29.034Z,9.45
2022-12-08T06:27:30.560Z,9.46
2022-12-08T06:28:32.874Z,9.45
2022-12-08T06:29:34.386Z,9.50
2022-12-08T06:30:37.852Z,9.53
2022-12-08T06:31:39.538Z,9.56
2022-12-08T06:32:41.278Z,9.54
2022-12-08T06:33:43.142Z,9.52
2022-12-08T06:34:44.830Z,9.52
2022-12-08T06:35:46.349Z,9.55
2022-12-08T06:36:47.994Z,9.54
2022-12-08T06:37:51.700Z,9.53
2022-12-08T06:38:53.290Z,9.58
2022-12-08T06:39:54.861Z,9.64
2022-12-08T06:40:57.860Z,9.65
2022-12-08T06:42:17.807Z,9.63
2022-12-08T06:43:19.309Z,9.55
2022-12-08T06:44:20.910Z,9.58
2022-12-08T06:45:22.443Z,9.60
2022-12-08T06:46:24.341Z,9.59
2022-12-08T06:47:26.419Z,9.53
2022-12-08T06:48:28.147Z,9.53
2022-12-08T06:49:29.658Z,9.54
2022-12-08T06:50:32.632Z,9.51
2022-12-08T06:51:34.158Z,9.50
2022-12-08T06:52:43.002Z,9.47
2022-12-08T06:53:47.526Z,9.46
2022-12-08T06:54:49.060Z,9.46
2022-12-08T06:56:00.795Z,9.46
2022-12-08T06:57:02.327Z,9.50
2022-12-08T06:58:03.978Z,9.59
2022-12-08T06:59:05.474Z,9.67
2022-12-08T07:00:08.187Z,9.78
2022-12-08T07:01:12.158Z,9.87
2022-12-08T07:02:13.804Z,9.90
2022-12-08T07:03:15.574Z,9.90
2022-12-08T07:04:17.379Z,9.90
2022-12-08T07:05:18.958Z,9.93
2022-12-08T07:06:23.241Z,9.97
2022-12-08T07:07:24.891Z,9.96
2022-12-08T07:08:26.612Z,10.01
2022-12-08T07:09:28.540Z,10.12
2022-12-08T07:10:30.230Z,10.22
2022-12-08T07:11:31.746Z,10.32
2022-12-08T07:12:33.303Z,10.40
2022-12-08T07:13:34.833Z,10.47
2022-12-08T07:14:36.386Z,10.54
2022-12-08T07:15:37.896Z,10.61
2022-12-08T07:16:39.600Z,10.68
2022-12-08T07:17:41.163Z,10.72
2022-12-08T07:18:44.011Z,10.78
2022-12-08T07:19:45.639Z,10.83
2022-12-08T07:20:47.182Z,10.91
2022-12-08T07:21:48.838Z,10.97
2022-12-08T07:22:51.232Z,11.03
2022-12-08T07:23:57.421Z,11.09
2022-12-08T07:24:59.523Z,11.18
2022-12-08T07:26:02.758Z,11.25
2022-12-08T07:27:04.475Z,11.28
2022-12-08T07:28:11.012Z,11.42
2022-12-08T07:29:12.707Z,11.44
2022-12-08T07:30:15.010Z,11.49
2022-12-08T07:31:19.875Z,11.52
2022-12-08T07:32:21.537Z,11.55
2022-12-08T07:33:23.161Z,11.59
2022-12-08T07:34:24.725Z,11.62
2022-12-08T07:35:26.436Z,11.65
2022-12-08T07:36:28.075Z,11.66
2022-12-08T07:37:29.598Z,11.69
2022-12-08T07:38:31.412Z,11.74
2022-12-08T07:39:32.975Z,11.76
2022-12-08T07:40:34.639Z,11.80
2022-12-08T07:41:36.147Z,11.86
2022-12-08T07:42:37.708Z,11.96
2022-12-08T07:43:39.341Z,11.95
2022-12-08T07:44:40.904Z,12.00
2022-12-08T07:45:42.731Z,12.06
2022-12-08T07:46:44.378Z,12.11
2022-12-08T07:47:46.028Z,12.10
2022-12-08T07:48:48.013Z,12.08
2022-12-08T07:49:49.603Z,12.12
2022-12-08T07:50:51.278Z,12.16
2022-12-08T07:51:52.845Z,12.11
2022-12-08T07:52:54.373Z,12.12
2022-12-08T07:53:55.969Z,12.13
2022-12-08T07:54:57.491Z,12.14
2022-12-08T07:55:59.322Z,12.20
2022-12-08T07:57:01.005Z,12.45
2022-12-08T07:58:02.616Z,12.76
2022-12-08T07:59:04.524Z,12.98
2022-12-08T08:00:07.104Z,13.08
2022-12-08T08:01:20.208Z,13.07
2022-12-08T08:02:24.719Z,13.05
2022-12-08T08:03:27.206Z,13.04
2022-12-08T08:04:28.840Z,12.94
2022-12-08T08:05:30.558Z,12.86
2022-12-08T08:06:33.655Z,12.89
2022-12-08T08:07:35.362Z,12.95
2022-12-08T08:08:36.898Z,12.96
2022-12-08T08:09:38.667Z,12.99
2022-12-08T08:10:40.230Z,13.11
2022-12-08T08:11:41.842Z,13.19
2022-12-08T08:12:43.407Z,13.31
2022-12-08T08:13:44.999Z,13.47
2022-12-08T08:14:46.545Z,13.53
2022-12-08T08:15:48.286Z,13.60
2022-12-08T08:16:50.028Z,13.65
2022-12-08T08:17:52.243Z,13.71
2022-12-08T08:18:54.238Z,13.78
2022-12-08T08:19:55.942Z,13.78
2022-12-08T08:21:06.714Z,13.85
2022-12-08T08:22:19.509Z,13.55
2022-12-08T08:23:21.090Z,13.49
2022-12-08T08:24:24.148Z,13.54
2022-12-08T08:25:25.738Z,13.45
2022-12-08T08:26:27.291Z,13.55
2022-12-08T08:27:28.916Z,13.68
2022-12-08T08:28:30.496Z,13.81
2022-12-08T08:29:32.122Z,13.95
2022-12-08T08:30:33.655Z,13.93
2022-12-08T08:31:35.377Z,13.77
2022-12-08T08:32:37.683Z,13.84
2022-12-08T08:33:39.289Z,13.98
2022-12-08T08:34:40.912Z,13.92
2022-12-08T08:35:42.533Z,13.97
2022-12-08T08:36:44.131Z,14.02
2022-12-08T08:37:48.821Z,14.11
2022-12-08T08:38:51.148Z,14.07
2022-12-08T08:39:53.205Z,13.97
2022-12-08T08:40:54.774Z,13.93
2022-12-08T08:41:56.333Z,14.00
2022-12-08T08:42:57.906Z,14.13
2022-12-08T08:43:59.510Z,14.16
2022-12-08T08:45:01.124Z,14.34
2022-12-08T08:46:03.664Z,14.49
2022-12-08T08:47:05.301Z,14.60
2022-12-08T08:48:07.366Z,14.63
2022-12-08T08:49:08.937Z,14.52
2022-12-08T08:50:10.647Z,14.36
2022-12-08T08:51:14.130Z,14.38
2022-12-08T08:52:15.723Z,14.42
2022-12-08T08:53:17.258Z,14.31
2022-12-08T08:54:18.816Z,14.04
2022-12-08T08:55:20.418Z,13.89
2022-12-08T08:56:22.460Z,13.77
2022-12-08T08:57:25.992Z,13.64
2022-12-08T08:58:27.831Z,13.52
2022-12-08T08:59:29.498Z,13.45
2022-12-08T09:00:31.140Z,13.46
2022-12-08T09:01:32.796Z,13.36
2022-12-08T09:03:04.425Z,13.31
2022-12-08T09:04:06.072Z,13.21
2022-12-08T09:05:08.145Z,13.23
2022-12-08T09:06:09.843Z,13.20
2022-12-08T09:07:11.902Z,13.26
2022-12-08T09:08:13.590Z,13.29
2022-12-08T09:09:16.586Z,13.28
2022-12-08T09:10:18.210Z,13.21
2022-12-08T09:11:20.299Z,13.16
2022-12-08T09:12:21.806Z,13.08
2022-12-08T09:13:23.639Z,13.04
2022-12-08T09:14:25.477Z,13.01
2022-12-08T09:15:27.165Z,12.99
2022-12-08T09:16:28.856Z,13.02
2022-12-08T09:17:30.554Z,13.11
2022-12-08T09:18:32.703Z,13.13
2022-12-08T09:19:34.628Z,13.08
2022-12-08T09:20:36.157Z,13.07
2022-12-08T09:21:39.444Z,13.08
2022-12-08T09:22:41.030Z,13.20
2022-12-08T09:23:43.720Z,13.32
2022-12-08T09:24:45.247Z,13.40
2022-12-08T09:25:47.381Z,13.41
2022-12-08T09:26:48.944Z,13.45
2022-12-08T09:27:50.499Z,13.48
2022-12-08T09:28:53.841Z,13.53
2022-12-08T09:29:55.400Z,13.55
2022-12-08T09:30:57.064Z,13.48
2022-12-08T09:31:58.736Z,13.43
2022-12-08T09:33:00.334Z,13.37
2022-12-08T09:34:02.040Z,13.43
2022-12-08T09:35:03.910Z,13.47
2022-12-08T09:36:06.011Z,13.52
2022-12-08T09:37:07.622Z,13.41
2022-12-08T09:38:09.172Z,13.43
2022-12-08T09:39:10.744Z,13.44
2022-12-08T09:40:18.604Z,13.45
2022-12-08T09:41:43.352Z,13.57
2022-12-08T09:42:53.134Z,13.59
2022-12-08T09:44:02.656Z,13.61
2022-12-08T09:45:06.703Z,13.55
2022-12-08T09:46:11.191Z,13.34
2022-12-08T09:47:29.490Z,13.29
2022-12-08T09:48:43.177Z,13.21
2022-12-08T09:49:52.449Z,13.21
2022-12-08T09:50:58.360Z,13.33
2022-12-08T09:52:00.444Z,13.36
2022-12-08T09:53:25.960Z,13.30
2022-12-08T09:54:34.965Z,13.29
2022-12-08T09:55:56.784Z,13.28
2022-12-08T09:57:01.308Z,13.33
2022-12-08T09:58:04.985Z,13.28
2022-12-08T09:59:23.884Z,13.30
2022-12-08T10:00:25.532Z,13.33
2022-12-08T10:01:30.152Z,13.26
2022-12-08T10:02:32.291Z,13.24
2022-12-08T10:03:33.824Z,13.27
2022-12-08T10:04:38.291Z,13.29
2022-12-08T10:05:49.765Z,13.30
2022-12-08T10:07:30.792Z,13.30
2022-12-08T10:08:47.195Z,13.32
2022-12-08T10:10:19.573Z,13.30
2022-12-08T10:11:32.298Z,13.31
2022-12-08T10:12:52.301Z,13.20
2022-12-08T10:14:08.967Z,13.21
2022-12-08T10:15:19.305Z,13.13
2022-12-08T10:16:36.811Z,13.07
2022-12-08T10:17:46.059Z,13.05
2022-12-08T10:18:55.822Z,13.06
2022-12-08T10:20:02.150Z,13.12
2022-12-08T10:21:20.524Z,13.15
2022-12-08T10:22:25.790Z,13.11
2022-12-08T10:23:35.919Z,13.12
2022-12-08T10:24:46.456Z,13.18
2022-12-08T10:25:56.659Z,13.23
2022-12-08T10:26:58.596Z,13.30
2022-12-08T10:28:00.323Z,13.32
2022-12-08T10:29:02.945Z,13.37
2022-12-08T10:30:15.706Z,13.45
2022-12-08T10:31:20.296Z,13.46
2022-12-08T10:32:24.296Z,13.54
2022-12-08T10:33:25.836Z,13.62
2022-12-08T10:34:27.489Z,13.61
2022-12-08T10:35:49.532Z,13.68
2022-12-08T10:36:56.802Z,13.74
2022-12-08T10:38:01.484Z,13.85
2022-12-08T10:39:03.121Z,13.83
2022-12-08T10:40:14.075Z,13.85
2022-12-08T10:41:18.242Z,13.81
2022-12-08T10:42:22.228Z,13.76
2022-12-08T10:43:27.740Z,13.74
2022-12-08T10:44:29.536Z,13.80
2022-12-08T10:45:38.182Z,13.85
2022-12-08T10:46:39.843Z,13.79
2022-12-08T10:47:45.313Z,13.88
2022-12-08T10:49:07.513Z,13.84
2022-12-08T10:50:30.738Z,13.73
2022-12-08T10:51:37.617Z,13.83
2022-12-08T10:52:40.487Z,13.78
2022-12-08T10:53:46.648Z,13.73
2022-12-08T10:54:54.002Z,13.76
2022-12-08T10:56:01.460Z,13.81
2022-12-08T10:57:03.156Z,13.85
2022-12-08T10:58:04.744Z,13.90
2022-12-08T10:59:06.252Z,13.95
2022-12-08T11:00:14.409Z,13.89
2022-12-08T11:01:28.151Z,13.98
2022-12-08T11:02:29.903Z,14.01
2022-12-08T11:03:36.285Z,14.06
2022-12-08T11:04:38.389Z,14.00
2022-12-08T11:05:41.949Z,13.93
2022-12-08T11:06:44.387Z,14.01
2022-12-08T11:07:51.661Z,13.99
2022-12-08T11:08:59.342Z,13.89
2022-12-08T11:10:01.021Z,13.85
2022-12-08T11:11:02.551Z,13.89
2022-12-08T11:12:18.451Z,13.84
2022-12-08T11:13:26.505Z,13.89
2022-12-08T11:14:31.539Z,13.86
2022-12-08T11:15:39.174Z,13.77
2022-12-08T11:16:43.062Z,13.67
2022-12-08T11:17:48.699Z,13.65
2022-12-08T11:18:58.436Z,13.64
2022-12-08T11:20:20.749Z,13.62
2022-12-08T11:21:34.330Z,13.56
2022-12-08T11:22:46.876Z,13.55
2022-12-08T11:23:50.580Z,13.56
2022-12-08T11:25:07.339Z,13.56
2022-12-08T11:26:15.791Z,13.61
2022-12-08T11:27:17.438Z,13.60
2022-12-08T11:28:24.323Z,13.62
2022-12-08T11:29:28.273Z,13.63
2022-12-08T11:30:35.202Z,13.47
2022-12-08T11:31:52.047Z,13.42
2022-12-08T11:32:57.506Z,13.44
2022-12-08T11:33:59.192Z,13.36
2022-12-08T11:35:07.031Z,13.26
2022-12-08T11:36:14.546Z,13.30
2022-12-08T11:37:28.617Z,13.28
2022-12-08T11:38:35.389Z,13.30
2022-12-08T11:39:44.344Z,13.26
2022-12-08T11:40:46.168Z,13.29
2022-12-08T11:41:48.954Z,13.33
2022-12-08T11:42:55.453Z,13.30
2022-12-08T11:44:24.633Z,13.33
2022-12-08T11:45:31.481Z,13.37
2022-12-08T11:46:59.682Z,13.42
2022-12-08T11:48:17.965Z,13.36
2022-12-08T11:49:20.657Z,13.33
2022-12-08T11:50:45.704Z,13.38
2022-12-08T11:51:54.782Z,13.44
2022-12-08T11:52:58.416Z,13.47
2022-12-08T11:54:33.969Z,13.48
2022-12-08T11:55:45.205Z,13.55
2022-12-08T11:56:54.625Z,13.63
2022-12-08T11:58:00.467Z,13.69
2022-12-08T11:59:17.771Z,13.66
2022-12-08T12:00:19.695Z,13.58
2022-12-08T12:01:24.147Z,13.51
2022-12-08T12:02:29.887Z,13.53
2022-12-08T12:03:38.917Z,13.56
2022-12-08T12:05:04.918Z,13.50
2022-12-08T12:06:46.649Z,13.52
2022-12-08T12:08:06.997Z,13.55
2022-12-08T12:09:30.577Z,13.53
2022-12-08T12:10:51.550Z,13.56
2022-12-08T12:12:15.742Z,13.58
2022-12-08T12:13:17.234Z,13.53
2022-12-08T12:14:41.663Z,13.51
2022-12-08T12:16:02.797Z,13.51
2022-12-08T12:17:06.275Z,13.55
2022-12-08T12:18:26.697Z,13.64
2022-12-08T12:19:30.331Z,13.66
2022-12-08T12:20:56.330Z,13.72
2022-12-08T12:21:59.991Z,13.78
2022-12-08T12:23:13.550Z,13.73
2022-12-08T12:24:26.127Z,13.57
2022-12-08T12:25:29.971Z,13.64
2022-12-08T12:26:37.262Z,13.69
2022-12-08T12:27:41.369Z,13.72
2022-12-08T12:28:52.679Z,13.66
2022-12-08T12:29:59.208Z,13.65
2022-12-08T12:31:10.045Z,13.55
2022-12-08T12:32:12.590Z,13.49
2022-12-08T12:33:17.630Z,13.53
2022-12-08T12:34:24.105Z,13.55
2022-12-08T12:35:37.451Z,13.52
2022-12-08T12:36:48.735Z,13.52
2022-12-08T12:37:50.357Z,13.53
2022-12-08T12:39:01.172Z,13.59
2022-12-08T12:40:05.813Z,13.54
2022-12-08T12:41:09.648Z,13.39
2022-12-08T12:42:43.292Z,13.32
2022-12-08T12:44:09.985Z,13.40
2022-12-08T12:45:16.178Z,13.44
2022-12-08T12:46:23.806Z,13.45
2022-12-08T12:47:50.885Z,13.43
2022-12-08T12:49:33.989Z,13.47
2022-12-08T12:50:37.060Z,13.47
2022-12-08T12:51:41.380Z,13.53
2022-12-08T12:52:44.121Z,13.45
2022-12-08T12:53:47.063Z,13.39
2022-12-08T12:54:51.393Z,13.41
2022-12-08T12:55:57.185Z,13.41
2022-12-08T12:57:04.709Z,13.31
2022-12-08T12:58:28.509Z,13.20
2022-12-08T12:59:42.637Z,13.12
2022-12-08T13:00:44.314Z,13.10
2022-12-08T13:01:54.425Z,13.13
2022-12-08T13:02:58.481Z,13.13
2022-12-08T13:04:09.107Z,13.17
2022-12-08T13:05:19.634Z,13.17
2022-12-08T13:06:35.841Z,13.05
2022-12-08T13:07:46.395Z,12.95
2022-12-08T13:08:55.209Z,12.93
2022-12-08T13:10:10.980Z,12.97
2022-12-08T13:11:12.870Z,12.98
2022-12-08T13:12:23.003Z,13.01
2022-12-08T13:13:24.751Z,13.00
2022-12-08T13:14:28.643Z,13.02
2022-12-08T13:15:52.478Z,13.04
2022-12-08T13:17:00.119Z,13.06
2022-12-08T13:18:02.113Z,13.03
2022-12-08T13:19:06.011Z,13.03
2022-12-08T13:20:20.198Z,13.11
2022-12-08T13:21:23.897Z,13.09
2022-12-08T13:22:53.525Z,13.08
2022-12-08T13:24:10.239Z,13.15
2022-12-08T13:25:39.853Z,13.13
2022-12-08T13:26:44.131Z,13.18
2022-12-08T13:27:54.136Z,13.15
2022-12-08T13:28:58.703Z,13.07
2022-12-08T13:30:41.192Z,13.02
2022-12-08T13:31:51.237Z,13.02
2022-12-08T13:34:19.085Z,12.90
2022-12-08T13:35:20.726Z,12.85
2022-12-08T13:36:35.836Z,12.87
2022-12-08T13:37:54.798Z,12.87
2022-12-08T13:38:58.674Z,12.85
2022-12-08T13:40:11.035Z,12.85
2022-12-08T13:41:21.991Z,12.85
2022-12-08T13:42:33.634Z,12.83
2022-12-08T13:45:03.522Z,12.79
2022-12-08T13:47:24.594Z,12.72
2022-12-08T13:50:05.812Z,12.74
2022-12-08T13:56:16.733Z,12.71
2022-12-08T13:57:29.690Z,12.71
2022-12-08T13:58:36.752Z,12.73
2022-12-08T13:59:44.340Z,12.71
2022-12-08T14:01:03.881Z,12.66
2022-12-08T14:02:15.159Z,12.60
2022-12-08T14:03:16.799Z,12.60
2022-12-08T14:04:48.028Z,12.60
2022-12-08T14:06:11.560Z,12.56
2022-12-08T14:07:10.208Z,12.55
2022-12-08T14:09:05.078Z,12.53
2022-12-08T14:10:09.735Z,12.49
2022-12-08T14:11:33.483Z,12.49
2022-12-08T14:12:35.575Z,12.47
2022-12-08T14:13:37.174Z,12.52
2022-12-08T14:15:04.750Z,12.52
2022-12-08T14:16:07.112Z,12.49
2022-12-08T14:17:14.802Z,12.49
2022-12-08T14:18:28.918Z,12.51
2022-12-08T14:19:32.845Z,12.49
2022-12-08T14:20:57.800Z,12.48
2022-12-08T14:22:15.573Z,12.49
2022-12-08T14:23:17.466Z,12.47
2022-12-08T14:24:19.112Z,12.46
2022-12-08T14:25:21.839Z,12.48
2022-12-08T14:26:23.390Z,12.45
2022-12-08T14:27:27.506Z,12.45
2022-12-08T14:28:30.334Z,12.47
2022-12-08T14:29:45.639Z,12.52
2022-12-08T14:30:49.551Z,12.51
2022-12-08T14:31:53.643Z,12.48